Flight Track Log - Related Links

Times and Time Zones

All times are in EDT time to prevent confusion due to time zone crossing. See the N658DS flight status page for this flight to view local times or setup timezone preferences in your user account.

Time Position Orientation Groundspeed Altitude Reporting Facility
EDT Latitude Longitude Course Direction KTS MPH feet Rate Location/Type
01:29PM 27.9667 -82.9000 360° North 131 151 10,500  Level Tampa TRACON
01:30PM 28.0000 -82.9000 360° North 133 153 10,500  Level Tampa TRACON
01:33PM 28.0747 -82.9256 343° North 123 142 10,500  Level Jacksonville Center
01:34PM 28.1125 -82.9350 348° North 123 142 10,500  Level Jacksonville Center
01:35PM 28.1458 -82.9419 350° North 123 142 10,500  Level Jacksonville Center
01:36PM 28.1833 -82.9514 347° North 123 142 10,500  Level Jacksonville Center
01:37PM 28.2189 -82.9539 356° North 123 142 10,500  Level Jacksonville Center
01:38PM 28.2564 -82.9539 360° North 123 142 10,500  Level Jacksonville Center
01:39PM 28.2939 -82.9514 North 123 142 10,500  Level Jacksonville Center
01:40PM 28.3272 -82.9586 349° North 123 142 10,500  Level Jacksonville Center
01:41PM 28.3628 -82.9658 350° North 123 142 10,500  Level Jacksonville Center
01:42PM 28.3983 -82.9706 353° North 123 142 10,500  Level Jacksonville Center
01:43PM 28.4358 -82.9681 North 123 142 10,500  Level Jacksonville Center
01:44PM 28.4714 -82.9586 13° North 124 143 10,500  Level Jacksonville Center
01:45PM 28.5047 -82.9469 17° North 124 143 10,500  Level Jacksonville Center
01:46PM 28.5381 -82.9303 24° Northeast 124 143 10,500  Level Jacksonville Center
01:47PM 28.5756 -82.9256 North 130 150 10,500  Level Jacksonville Center
01:48PM 28.6089 -82.9281 356° North 125 144 10,500  Level Jacksonville Center
01:49PM 28.6467 -82.9328 354° North 125 144 10,500  Level Jacksonville Center
01:50PM 28.6800 -82.9447 343° North 120 138 10,500  Level Jacksonville Center
01:51PM 28.7175 -82.9542 348° North 125 144 10,500  Level Jacksonville Center
01:52PM 28.7489 -82.9683 338° Northwest 125 144 10,500  Level Jacksonville Center
01:53PM 28.7844 -82.9778 347° North 125 144 10,500  Level Jacksonville Center
01:54PM 28.8178 -82.9897 343° North 125 144 10,500  Level Jacksonville Center
01:55PM 28.8531 -82.9992 347° North 125 144 10,500  Level Jacksonville Center
01:56PM 28.8844 -83.0136 338° Northwest 125 144 10,500  Level Jacksonville Center
01:57PM 28.9178 -83.0256 343° North 125 144 10,500  Level Jacksonville Center
01:58PM 28.9553 -83.0397 342° North 131 151 10,500  Level Jacksonville Center
01:59PM 28.9889 -83.0492 346° North 131 151 10,500  Level Jacksonville Center
02:00PM 29.0242 -83.0636 340° North 131 151 10,500  Level Jacksonville Center
02:01PM 29.0619 -83.0731 348° North 131 151 10,500  Level Jacksonville Center
02:02PM 29.0953 -83.0850 343° North 131 151 10,500  Level Jacksonville Center
02:03PM 29.1264 -83.1089 326° Northwest 131 151 10,500  Level Jacksonville Center
02:04PM 29.1556 -83.1328 324° Northwest 131 151 10,500  Level Jacksonville Center
02:05PM 29.1847 -83.1542 327° Northwest 131 151 10,500  Level Jacksonville Center
02:06PM 29.2161 -83.1781 326° Northwest 131 151 10,500  Level Jacksonville Center
02:07PM 29.2472 -83.1994 329° Northwest 126 145 10,500  Level Jacksonville Center
02:08PM 29.2786 -83.2211 329° Northwest 126 145 10,500  Level Jacksonville Center
02:09PM 29.3119 -83.2378 336° Northwest 126 145 10,500  Level Jacksonville Center
02:10PM 29.3494 -83.2572 336° Northwest 126 145 10,500  Level Jacksonville Center
02:11PM 29.3786 -83.2786 327° Northwest 126 145 10,500  Level Jacksonville Center
02:12PM 29.4100 -83.3025 326° Northwest 126 145 10,500 -100 Level Jacksonville Center
02:13PM 29.4369 -83.3289 320° Northwest 121 139 10,300 -250 Descending Jacksonville Center
02:14PM 29.4639 -83.3578 317° Northwest 127 146 10,000 -149 Descending Jacksonville Center
02:15PM 29.4931 -83.3817 325° Northwest 132 152 10,000 -50 Level Jacksonville Center
02:16PM 29.5222 -83.4033 327° Northwest 132 152 9,900 -454 Descending Jacksonville Center
02:17PM 29.5639 -83.4131 349° North 132 152 9,100 -850 Descending Jacksonville Center
02:18PM 29.6014 -83.4300 339° North 137 158 8,200 -800 Descending Jacksonville Center
02:19PM 29.6328 -83.4492 332° Northwest 137 158 7,500 -350 Descending Jacksonville Center
02:20PM 29.6597 -83.4758 319° Northwest 126 145 7,500  Level Jacksonville Center
02:21PM 29.6825 -83.5047 312° West 121 139 7,500 -100 Level Jacksonville Center
02:22PM 29.6908 -83.5406 285° West 121 139 7,300 -350 Descending Jacksonville Center
02:23PM 29.7031 -83.5742 293° West 116 133 6,800 -400 Descending Jacksonville Center
02:24PM 29.7281 -83.6078 311° West 121 139 6,500 -149 Descending Jacksonville Center
02:25PM 29.7444 -83.6367 303° West 121 139 6,500  Level Jacksonville Center
02:26PM 29.7672 -83.6703 308° West 121 139 6,500  Level Jacksonville Center
02:27PM 29.7858 -83.7014 305° West 121 139 6,500  Level Jacksonville Center
02:28PM 29.8022 -83.7350 299° West 121 139 6,500  Level Jacksonville Center
02:29PM 29.8167 -83.7686 296° West 121 139 6,500  Level Jacksonville Center
02:30PM 29.8311 -83.8000 298° West 121 139 6,500  Level Jacksonville Center
02:31PM 29.8433 -83.8311 294° West 116 133 6,500  Level Jacksonville Center
02:32PM 29.8556 -83.8672 291° West 116 133 6,500  Level Jacksonville Center
02:33PM 29.8700 -83.9008 296° West 116 133 6,500  Level Jacksonville Center
02:34PM 29.8864 -83.9322 301° West 116 133 6,500  Level Jacksonville Center
02:36PM 29.9430 -83.9686 331° Northwest  Level FlightAware Approximate
02:43PM 30.1426 -84.0975 331° Northwest  Level FlightAware Approximate
02:44PM 30.1711 -84.1159 331° Northwest  Level FlightAware Approximate
02:45PM 30.1996 -84.1344 331° Northwest  Level FlightAware Approximate
02:46PM 30.2282 -84.1528 331° Northwest  Level FlightAware Approximate
02:47PM 30.2567 -84.1713 331° Northwest  Level FlightAware Approximate
02:48PM 30.2852 -84.1898 331° Northwest  Level FlightAware Approximate
02:49PM 30.3137 -84.2083 331° Northwest  Level FlightAware Approximate
02:50PM 30.3422 -84.2268 331° Northwest  Level FlightAware Approximate
02:51PM 30.3706 -84.2453 331° Northwest  Level FlightAware Approximate
02:52PM 30.3991 -84.2639 331° Northwest  Level FlightAware Approximate
02:53PM 30.4276 -84.2824 331° Northwest  Level FlightAware Approximate
02:54PM 30.4561 -84.3009 331° Northwest  Level FlightAware Approximate
02:55PM 30.4846 -84.3195 331° Northwest  Level FlightAware Approximate
02:56PM 30.5131 -84.3381 331° Northwest  Level FlightAware Approximate
02:57PM 30.5415 -84.3567 331° Northwest  Level FlightAware Approximate
02:58PM 30.5700 -84.3753 331° Northwest  Level FlightAware Approximate
02:59PM 30.5985 -84.3939 331° Northwest  Level FlightAware Approximate
03:00PM 30.6270 -84.4125 331° Northwest  Level FlightAware Approximate
03:01PM 30.6557 -84.4309 331° Northwest  Level FlightAware Approximate
03:02PM 30.6844 -84.4491 331° Northwest  Level FlightAware Approximate
03:03PM 30.7130 -84.4673 331° Northwest  Level FlightAware Approximate
03:04PM 30.7417 -84.4856 331° Northwest  Level FlightAware Approximate
03:05PM 30.7703 -84.5038 331° Northwest  Level FlightAware Approximate
03:06PM 30.7990 -84.5221 331° Northwest  Level FlightAware Approximate
03:07PM 30.8275 -84.5406 330° Northwest  Level FlightAware Approximate
03:08PM 30.8559 -84.5594 330° Northwest  Level FlightAware Approximate
03:09PM 30.8843 -84.5783 330° Northwest  Level FlightAware Approximate
03:10PM 30.9126 -84.5973 330° Northwest  Level FlightAware Approximate
03:11PM 30.9410 -84.6162 330° Northwest  Level FlightAware Approximate
03:12PM 30.9667 -84.6333 330° Northwest  Level FlightAware Approximate
03:13PM 30.9716 -84.6369 330° Northwest  Level Estimated
03:14PM 30.9667 -84.6333 330° Northwest  Level FlightAware Approximate
03:15PM 30.9716 -84.6369 330° Northwest  Level Estimated
03:16PM 30.9667 -84.6333 330° Northwest  Level FlightAware Approximate
03:17PM 30.9716 -84.6369 330° Northwest  Level Estimated
03:18PM 30.9667 -84.6333 330° Northwest  Level FlightAware Approximate
03:19PM 30.9716 -84.6369 330° Northwest  Level Estimated
03:20PM 30.9667 -84.6333 330° Northwest  Level FlightAware Approximate
03:21PM 30.9716 -84.6369 330° Northwest  Level Estimated
03:22PM 30.9667 -84.6333 330° Northwest  Level FlightAware Approximate
03:23PM 30.9716 -84.6369 330° Northwest  Level Estimated
03:24PM 30.9667 -84.6333 330° Northwest  Level FlightAware Approximate
03:25PM 30.9716 -84.6369 330° Northwest  Level Estimated
03:26PM 30.9667 -84.6333 330° Northwest  Level FlightAware Approximate
03:27PM 30.9716 -84.6369 330° Northwest  Level Estimated

Login

Don't have an account? Register now (free) for customized features, flight alerts, and more!